sensor_id;sensor_type;location;lat;lon;timestamp;pressure;altitude;pressure_sealevel;temperature;humidity
12763;BME280;6445;52.490;13.378;2023-02-25T00:01:03;-12695.97;;;-146.10;100.00
12763;BME280;6445;52.490;13.378;2023-02-25T00:03:28;-12695.97;;;-146.10;100.00
12763;BME280;6445;52.490;13.378;2023-02-25T00:05:53;-12695.97;;;-146.10;100.00
12763;BME280;6445;52.490;13.378;2023-02-25T00:08:19;-12695.97;;;-146.10;100.00
12763;BME280;6445;52.490;13.378;2023-02-25T00:10:44;-12695.97;;;-146.10;100.00
12763;BME280;6445;52.490;13.378;2023-02-25T00:13:09;-12695.97;;;-146.10;100.00
12763;BME280;6445;52.490;13.378;2023-02-25T00:15:35;-12695.97;;;-146.10;100.00
12763;BME280;6445;52.490;13.378;2023-02-25T00:18:00;-12695.97;;;-146.10;100.00
12763;BME280;6445;52.490;13.378;2023-02-25T00:20:26;-12695.97;;;-146.10;100.00
12763;BME280;6445;52.490;13.378;2023-02-25T00:22:51;-12695.97;;;-146.10;100.00
12763;BME280;6445;52.490;13.378;2023-02-25T00:25:17;-12695.97;;;-146.10;100.00
12763;BME280;6445;52.490;13.378;2023-02-25T00:27:42;-12695.97;;;-146.10;100.00
12763;BME280;6445;52.490;13.378;2023-02-25T00:30:09;-12695.97;;;-146.10;100.00
12763;BME280;6445;52.490;13.378;2023-02-25T00:32:35;-12695.97;;;-146.10;100.00
12763;BME280;6445;52.490;13.378;2023-02-25T00:35:01;-12695.97;;;-146.10;100.00
12763;BME280;6445;52.490;13.378;2023-02-25T00:37:26;-12695.97;;;-146.10;100.00
12763;BME280;6445;52.490;13.378;2023-02-25T00:39:52;-12695.97;;;-146.10;100.00
12763;BME280;6445;52.490;13.378;2023-02-25T00:42:17;-12695.97;;;-146.10;100.00
12763;BME280;6445;52.490;13.378;2023-02-25T00:44:46;-12695.97;;;-146.10;100.00
12763;BME280;6445;52.490;13.378;2023-02-25T00:47:12;-12695.97;;;-146.10;100.00
12763;BME280;6445;52.490;13.378;2023-02-25T00:49:38;-12695.97;;;-146.10;100.00
12763;BME280;6445;52.490;13.378;2023-02-25T00:52:03;-12695.97;;;-146.10;100.00
12763;BME280;6445;52.490;13.378;2023-02-25T00:54:29;-12695.97;;;-146.10;100.00
12763;BME280;6445;52.490;13.378;2023-02-25T00:56:54;-12695.97;;;-146.10;100.00
12763;BME280;6445;52.490;13.378;2023-02-25T00:59:19;-12695.97;;;-146.10;100.00
12763;BME280;6445;52.490;13.378;2023-02-25T01:01:45;-12695.97;;;-146.10;100.00
12763;BME280;6445;52.490;13.378;2023-02-25T01:04:10;-12695.97;;;-146.10;100.00
12763;BME280;6445;52.490;13.378;2023-02-25T01:06:36;-12695.97;;;-146.10;100.00
12763;BME280;6445;52.490;13.378;2023-02-25T01:09:05;-12695.97;;;-146.10;100.00
12763;BME280;6445;52.490;13.378;2023-02-25T01:11:33;-12695.97;;;-146.10;100.00
12763;BME280;6445;52.490;13.378;2023-02-25T01:14:01;-12695.97;;;-146.10;100.00
12763;BME280;6445;52.490;13.378;2023-02-25T01:16:30;-12695.97;;;-146.10;100.00
12763;BME280;6445;52.490;13.378;2023-02-25T01:18:58;-12695.97;;;-146.10;100.00
12763;BME280;6445;52.490;13.378;2023-02-25T01:21:27;-12695.97;;;-146.10;100.00
12763;BME280;6445;52.490;13.378;2023-02-25T01:23:58;-12695.97;;;-146.10;100.00
12763;BME280;6445;52.490;13.378;2023-02-25T01:26:25;-12695.97;;;-146.10;100.00
12763;BME280;6445;52.490;13.378;2023-02-25T01:28:51;-12695.97;;;-146.10;100.00
12763;BME280;6445;52.490;13.378;2023-02-25T01:31:18;-12695.97;;;-146.10;100.00
12763;BME280;6445;52.490;13.378;2023-02-25T01:33:48;-12695.97;;;-146.10;100.00
12763;BME280;6445;52.490;13.378;2023-02-25T01:36:14;-12695.97;;;-146.10;100.00
12763;BME280;6445;52.490;13.378;2023-02-25T01:38:39;-12695.97;;;-146.10;100.00
12763;BME280;6445;52.490;13.378;2023-02-25T01:41:04;-12695.97;;;-146.10;100.00
12763;BME280;6445;52.490;13.378;2023-02-25T01:43:29;-12695.97;;;-146.10;100.00
12763;BME280;6445;52.490;13.378;2023-02-25T01:45:55;-12695.97;;;-146.10;100.00
12763;BME280;6445;52.490;13.378;2023-02-25T01:48:30;-12695.97;;;-146.10;100.00
12763;BME280;6445;52.490;13.378;2023-02-25T01:51:02;-12695.97;;;-146.10;100.00
12763;BME280;6445;52.490;13.378;2023-02-25T01:53:33;-12695.97;;;-146.10;100.00
12763;BME280;6445;52.490;13.378;2023-02-25T01:56:00;-12695.97;;;-146.10;100.00
12763;BME280;6445;52.490;13.378;2023-02-25T01:58:27;-12695.97;;;-146.10;100.00
12763;BME280;6445;52.490;13.378;2023-02-25T02:00:53;-12695.97;;;-146.10;100.00
12763;BME280;6445;52.490;13.378;2023-02-25T02:03:21;-12695.97;;;-146.10;100.00
12763;BME280;6445;52.490;13.378;2023-02-25T02:06:07;-12695.97;;;-146.10;100.00
12763;BME280;6445;52.490;13.378;2023-02-25T02:08:35;-12695.97;;;-146.10;100.00
12763;BME280;6445;52.490;13.378;2023-02-25T02:11:00;-12695.97;;;-146.10;100.00
12763;BME280;6445;52.490;13.378;2023-02-25T02:13:27;-12695.97;;;-146.10;100.00
12763;BME280;6445;52.490;13.378;2023-02-25T02:18:58;-12695.97;;;-146.10;100.00
12763;BME280;6445;52.490;13.378;2023-02-25T02:27:13;-12695.97;;;-146.10;100.00
12763;BME280;6445;52.490;13.378;2023-02-25T02:30:06;-12695.97;;;-146.10;100.00
12763;BME280;6445;52.490;13.378;2023-02-25T02:35:35;-12695.97;;;-146.10;100.00
12763;BME280;6445;52.490;13.378;2023-02-25T02:38:12;-12695.97;;;-146.10;100.00
12763;BME280;6445;52.490;13.378;2023-02-25T02:43:49;-12695.97;;;-146.10;100.00
12763;BME280;6445;52.490;13.378;2023-02-25T02:46:34;-12695.97;;;-146.10;100.00
12763;BME280;6445;52.490;13.378;2023-02-25T02:49:12;-12695.97;;;-146.10;100.00
12763;BME280;6445;52.490;13.378;2023-02-25T02:51:48;-12695.97;;;-146.10;100.00
12763;BME280;6445;52.490;13.378;2023-02-25T02:54:16;-12695.97;;;-146.10;100.00
12763;BME280;6445;52.490;13.378;2023-02-25T02:56:43;-12695.97;;;-146.10;100.00
12763;BME280;6445;52.490;13.378;2023-02-25T02:59:20;-12695.97;;;-146.10;100.00
12763;BME280;6445;52.490;13.378;2023-02-25T03:01:50;-12695.97;;;-146.10;100.00
12763;BME280;6445;52.490;13.378;2023-02-25T03:04:25;-12695.97;;;-146.10;100.00
12763;BME280;6445;52.490;13.378;2023-02-25T03:06:54;-12695.97;;;-146.10;100.00
12763;BME280;6445;52.490;13.378;2023-02-25T03:09:24;-12695.97;;;-146.10;100.00
12763;BME280;6445;52.490;13.378;2023-02-25T03:11:52;-12695.97;;;-146.10;100.00
12763;BME280;6445;52.490;13.378;2023-02-25T03:14:17;-12695.97;;;-146.10;100.00
12763;BME280;6445;52.490;13.378;2023-02-25T03:16:47;-12695.97;;;-146.10;100.00
12763;BME280;6445;52.490;13.378;2023-02-25T03:19:17;-12695.97;;;-146.10;100.00
12763;BME280;6445;52.490;13.378;2023-02-25T03:21:49;-12695.97;;;-146.10;100.00
12763;BME280;6445;52.490;13.378;2023-02-25T03:24:23;-12695.97;;;-146.10;100.00
12763;BME280;6445;52.490;13.378;2023-02-25T03:26:51;-12695.97;;;-146.10;100.00
12763;BME280;6445;52.490;13.378;2023-02-25T03:29:20;-12695.97;;;-146.10;100.00
12763;BME280;6445;52.490;13.378;2023-02-25T03:32:08;-12695.97;;;-146.10;100.00
12763;BME280;6445;52.490;13.378;2023-02-25T03:34:40;-12695.97;;;-146.10;100.00
12763;BME280;6445;52.490;13.378;2023-02-25T03:37:22;-12695.97;;;-146.10;100.00
12763;BME280;6445;52.490;13.378;2023-02-25T03:39:53;-12695.97;;;-146.10;100.00
12763;BME280;6445;52.490;13.378;2023-02-25T03:42:26;-12695.97;;;-146.10;100.00
12763;BME280;6445;52.490;13.378;2023-02-25T03:44:56;-12695.97;;;-146.10;100.00
12763;BME280;6445;52.490;13.378;2023-02-25T03:47:24;-12695.97;;;-146.10;100.00
12763;BME280;6445;52.490;13.378;2023-02-25T03:50:24;-12695.97;;;-146.10;100.00
12763;BME280;6445;52.490;13.378;2023-02-25T03:52:52;-12695.97;;;-146.10;100.00
12763;BME280;6445;52.490;13.378;2023-02-25T03:55:17;-12695.97;;;-146.10;100.00
12763;BME280;6445;52.490;13.378;2023-02-25T03:57:44;-12695.97;;;-146.10;100.00
12763;BME280;6445;52.490;13.378;2023-02-25T04:00:24;-12695.97;;;-146.10;100.00
12763;BME280;6445;52.490;13.378;2023-02-25T04:02:50;-12695.97;;;-146.10;100.00
12763;BME280;6445;52.490;13.378;2023-02-25T04:05:17;-12695.97;;;-146.10;100.00
12763;BME280;6445;52.490;13.378;2023-02-25T04:07:43;-12695.97;;;-146.10;100.00
12763;BME280;6445;52.490;13.378;2023-02-25T04:10:11;-12695.97;;;-146.10;100.00
12763;BME280;6445;52.490;13.378;2023-02-25T04:12:37;-12695.97;;;-146.10;100.00
12763;BME280;6445;52.490;13.378;2023-02-25T04:15:03;-12695.97;;;-146.10;100.00
12763;BME280;6445;52.490;13.378;2023-02-25T04:17:30;-12695.97;;;-146.10;100.00
12763;BME280;6445;52.490;13.378;2023-02-25T04:19:55;-12695.97;;;-146.10;100.00
12763;BME280;6445;52.490;13.378;2023-02-25T04:22:20;-12695.97;;;-146.10;100.00
12763;BME280;6445;52.490;13.378;2023-02-25T04:24:46;-12695.97;;;-146.10;100.00
12763;BME280;6445;52.490;13.378;2023-02-25T04:27:11;-12695.97;;;-146.10;100.00
12763;BME280;6445;52.490;13.378;2023-02-25T04:29:39;-12695.97;;;-146.10;100.00
12763;BME280;6445;52.490;13.378;2023-02-25T04:32:05;-12695.97;;;-146.10;100.00
12763;BME280;6445;52.490;13.378;2023-02-25T04:34:30;-12695.97;;;-146.10;100.00
12763;BME280;6445;52.490;13.378;2023-02-25T04:36:55;-12695.97;;;-146.10;100.00
12763;BME280;6445;52.490;13.378;2023-02-25T04:39:21;-12695.97;;;-146.10;100.00
12763;BME280;6445;52.490;13.378;2023-02-25T04:41:46;-12695.97;;;-146.10;100.00
12763;BME280;6445;52.490;13.378;2023-02-25T04:44:11;-12695.97;;;-146.10;100.00
12763;BME280;6445;52.490;13.378;2023-02-25T04:46:39;-12695.97;;;-146.10;100.00
12763;BME280;6445;52.490;13.378;2023-02-25T04:49:06;-12695.97;;;-146.10;100.00
12763;BME280;6445;52.490;13.378;2023-02-25T04:51:32;-12695.97;;;-146.10;100.00
12763;BME280;6445;52.490;13.378;2023-02-25T04:53:58;-12695.97;;;-146.10;100.00
12763;BME280;6445;52.490;13.378;2023-02-25T04:56:23;-12695.97;;;-146.10;100.00
12763;BME280;6445;52.490;13.378;2023-02-25T04:58:49;-12695.97;;;-146.10;100.00
12763;BME280;6445;52.490;13.378;2023-02-25T05:01:16;-12695.97;;;-146.10;100.00
12763;BME280;6445;52.490;13.378;2023-02-25T05:03:41;-12695.97;;;-146.10;100.00
12763;BME280;6445;52.490;13.378;2023-02-25T05:06:07;-12695.97;;;-146.10;100.00
12763;BME280;6445;52.490;13.378;2023-02-25T05:08:33;-12695.97;;;-146.10;100.00
12763;BME280;6445;52.490;13.378;2023-02-25T05:10:59;-12695.97;;;-146.10;100.00
12763;BME280;6445;52.490;13.378;2023-02-25T05:13:26;-12695.97;;;-146.10;100.00
12763;BME280;6445;52.490;13.378;2023-02-25T05:15:52;-12695.97;;;-146.10;100.00
12763;BME280;6445;52.490;13.378;2023-02-25T05:18:17;-12695.97;;;-146.10;100.00
12763;BME280;6445;52.490;13.378;2023-02-25T05:20:45;-12695.97;;;-146.10;100.00
12763;BME280;6445;52.490;13.378;2023-02-25T05:23:11;-12695.97;;;-146.10;100.00
12763;BME280;6445;52.490;13.378;2023-02-25T05:25:37;-12695.97;;;-146.10;100.00
12763;BME280;6445;52.490;13.378;2023-02-25T05:28:08;-12695.97;;;-146.10;100.00
12763;BME280;6445;52.490;13.378;2023-02-25T05:30:36;-12695.97;;;-146.10;100.00
12763;BME280;6445;52.490;13.378;2023-02-25T05:33:01;-12695.97;;;-146.10;100.00
12763;BME280;6445;52.490;13.378;2023-02-25T05:35:26;-12695.97;;;-146.10;100.00
12763;BME280;6445;52.490;13.378;2023-02-25T05:37:52;-12695.97;;;-146.10;100.00
12763;BME280;6445;52.490;13.378;2023-02-25T05:40:18;-12695.97;;;-146.10;100.00
12763;BME280;6445;52.490;13.378;2023-02-25T05:42:44;-12695.97;;;-146.10;100.00
12763;BME280;6445;52.490;13.378;2023-02-25T05:45:13;-12695.97;;;-146.10;100.00
12763;BME280;6445;52.490;13.378;2023-02-25T05:47:39;-12695.97;;;-146.10;100.00
12763;BME280;6445;52.490;13.378;2023-02-25T05:50:04;-12695.97;;;-146.10;100.00
12763;BME280;6445;52.490;13.378;2023-02-25T05:52:30;-12695.97;;;-146.10;100.00
12763;BME280;6445;52.490;13.378;2023-02-25T05:54:55;-12695.97;;;-146.10;100.00
12763;BME280;6445;52.490;13.378;2023-02-25T05:57:20;-12695.97;;;-146.10;100.00
12763;BME280;6445;52.490;13.378;2023-02-25T05:59:48;-12695.97;;;-146.10;100.00
12763;BME280;6445;52.490;13.378;2023-02-25T06:02:13;-12695.97;;;-146.10;100.00
12763;BME280;6445;52.490;13.378;2023-02-25T06:04:39;-12695.97;;;-146.10;100.00
12763;BME280;6445;52.490;13.378;2023-02-25T06:07:04;-12695.97;;;-146.10;100.00
12763;BME280;6445;52.490;13.378;2023-02-25T06:09:29;-12695.97;;;-146.10;100.00
12763;BME280;6445;52.490;13.378;2023-02-25T06:11:56;-12695.97;;;-146.10;100.00
12763;BME280;6445;52.490;13.378;2023-02-25T06:14:21;-12695.97;;;-146.10;100.00
12763;BME280;6445;52.490;13.378;2023-02-25T06:16:46;-12695.97;;;-146.10;100.00
12763;BME280;6445;52.490;13.378;2023-02-25T06:19:12;-12695.97;;;-146.10;100.00
12763;BME280;6445;52.490;13.378;2023-02-25T06:21:38;-12695.97;;;-146.10;100.00
12763;BME280;6445;52.490;13.378;2023-02-25T06:24:03;-12695.97;;;-146.10;100.00
12763;BME280;6445;52.490;13.378;2023-02-25T06:26:29;-12695.97;;;-146.10;100.00
12763;BME280;6445;52.490;13.378;2023-02-25T06:28:54;-12695.97;;;-146.10;100.00
12763;BME280;6445;52.490;13.378;2023-02-25T06:31:22;-12695.97;;;-146.10;100.00
12763;BME280;6445;52.490;13.378;2023-02-25T06:33:48;-12695.97;;;-146.10;100.00
12763;BME280;6445;52.490;13.378;2023-02-25T06:36:15;-12695.97;;;-146.10;100.00
12763;BME280;6445;52.490;13.378;2023-02-25T06:38:40;-12695.97;;;-146.10;100.00
12763;BME280;6445;52.490;13.378;2023-02-25T06:41:18;-12695.97;;;-146.10;100.00
12763;BME280;6445;52.490;13.378;2023-02-25T06:43:46;-12695.97;;;-146.10;100.00
12763;BME280;6445;52.490;13.378;2023-02-25T06:46:16;-12695.97;;;-146.10;100.00
12763;BME280;6445;52.490;13.378;2023-02-25T06:48:41;-12695.97;;;-146.10;100.00
12763;BME280;6445;52.490;13.378;2023-02-25T06:51:06;-12695.97;;;-146.10;100.00
12763;BME280;6445;52.490;13.378;2023-02-25T06:53:37;-12695.97;;;-146.10;100.00
12763;BME280;6445;52.490;13.378;2023-02-25T06:56:03;-12695.97;;;-146.10;100.00
12763;BME280;6445;52.490;13.378;2023-02-25T06:58:28;-12695.97;;;-146.10;100.00
12763;BME280;6445;52.490;13.378;2023-02-25T07:00:54;-12695.97;;;-146.10;100.00
12763;BME280;6445;52.490;13.378;2023-02-25T07:03:19;-12695.97;;;-146.10;100.00
12763;BME280;6445;52.490;13.378;2023-02-25T07:05:44;-12695.97;;;-146.10;100.00
12763;BME280;6445;52.490;13.378;2023-02-25T07:08:09;-12695.97;;;-146.10;100.00
12763;BME280;6445;52.490;13.378;2023-02-25T07:10:35;-12695.97;;;-146.10;100.00
12763;BME280;6445;52.490;13.378;2023-02-25T07:13:00;-12695.97;;;-146.10;100.00
12763;BME280;6445;52.490;13.378;2023-02-25T07:15:25;-12695.97;;;-146.10;100.00
12763;BME280;6445;52.490;13.378;2023-02-25T07:17:51;-12695.97;;;-146.10;100.00
12763;BME280;6445;52.490;13.378;2023-02-25T07:20:16;-12695.97;;;-146.10;100.00
12763;BME280;6445;52.490;13.378;2023-02-25T07:22:41;-12695.97;;;-146.10;100.00
12763;BME280;6445;52.490;13.378;2023-02-25T07:25:08;-12695.97;;;-146.10;100.00
12763;BME280;6445;52.490;13.378;2023-02-25T07:27:38;-12695.97;;;-146.10;100.00
12763;BME280;6445;52.490;13.378;2023-02-25T07:30:04;-12695.97;;;-146.10;100.00
12763;BME280;6445;52.490;13.378;2023-02-25T07:32:29;-12695.97;;;-146.10;100.00
12763;BME280;6445;52.490;13.378;2023-02-25T07:34:54;-12695.97;;;-146.10;100.00
12763;BME280;6445;52.490;13.378;2023-02-25T07:37:20;-12695.97;;;-146.10;100.00
12763;BME280;6445;52.490;13.378;2023-02-25T07:39:45;-12695.97;;;-146.10;100.00
12763;BME280;6445;52.490;13.378;2023-02-25T07:42:10;-12695.97;;;-146.10;100.00
12763;BME280;6445;52.490;13.378;2023-02-25T07:44:36;-12695.97;;;-146.10;100.00
12763;BME280;6445;52.490;13.378;2023-02-25T07:47:01;-12695.97;;;-146.10;100.00
12763;BME280;6445;52.490;13.378;2023-02-25T07:49:26;-12695.97;;;-146.10;100.00
12763;BME280;6445;52.490;13.378;2023-02-25T07:51:52;-12695.97;;;-146.10;100.00
12763;BME280;6445;52.490;13.378;2023-02-25T07:54:17;-12695.97;;;-146.10;100.00
12763;BME280;6445;52.490;13.378;2023-02-25T07:56:45;-12695.97;;;-146.10;100.00
12763;BME280;6445;52.490;13.378;2023-02-25T07:59:10;-12695.97;;;-146.10;100.00
12763;BME280;6445;52.490;13.378;2023-02-25T08:01:36;-12695.97;;;-146.10;100.00
12763;BME280;6445;52.490;13.378;2023-02-25T08:04:05;-12695.97;;;-146.10;100.00
12763;BME280;6445;52.490;13.378;2023-02-25T08:06:33;-12695.97;;;-146.10;100.00
12763;BME280;6445;52.490;13.378;2023-02-25T08:08:59;-12695.97;;;-146.10;100.00
12763;BME280;6445;52.490;13.378;2023-02-25T08:11:25;-12695.97;;;-146.10;100.00
12763;BME280;6445;52.490;13.378;2023-02-25T08:13:51;-12695.97;;;-146.10;100.00
12763;BME280;6445;52.490;13.378;2023-02-25T08:16:18;-12695.97;;;-146.10;100.00
12763;BME280;6445;52.490;13.378;2023-02-25T08:18:43;-12695.97;;;-146.10;100.00
12763;BME280;6445;52.490;13.378;2023-02-25T08:21:14;-12695.97;;;-146.10;100.00
12763;BME280;6445;52.490;13.378;2023-02-25T08:23:39;-12695.97;;;-146.10;100.00
12763;BME280;6445;52.490;13.378;2023-02-25T08:26:06;-12695.97;;;-146.10;100.00
12763;BME280;6445;52.490;13.378;2023-02-25T08:28:31;-12695.97;;;-146.10;100.00
12763;BME280;6445;52.490;13.378;2023-02-25T08:30:58;-12695.97;;;-146.10;100.00
12763;BME280;6445;52.490;13.378;2023-02-25T08:33:24;-12695.97;;;-146.10;100.00
12763;BME280;6445;52.490;13.378;2023-02-25T08:35:49;-12695.97;;;-146.10;100.00
12763;BME280;6445;52.490;13.378;2023-02-25T08:38:15;-12695.97;;;-146.10;100.00
12763;BME280;6445;52.490;13.378;2023-02-25T08:40:40;-12694.50;;;-146.10;100.00
12763;BME280;6445;52.490;13.378;2023-02-25T08:43:06;-12694.50;;;-146.10;100.00
12763;BME280;6445;52.490;13.378;2023-02-25T08:45:32;-12694.50;;;-146.10;100.00
12763;BME280;6445;52.490;13.378;2023-02-25T08:47:57;-12694.50;;;-146.10;100.00
12763;BME280;6445;52.490;13.378;2023-02-25T08:50:23;-12695.97;;;-146.10;100.00
12763;BME280;6445;52.490;13.378;2023-02-25T08:52:49;-12695.97;;;-146.10;100.00
12763;BME280;6445;52.490;13.378;2023-02-25T08:55:15;-12694.50;;;-146.10;100.00
12763;BME280;6445;52.490;13.378;2023-02-25T08:57:42;-12694.50;;;-146.10;100.00
12763;BME280;6445;52.490;13.378;2023-02-25T09:00:09;-12695.97;;;-146.10;100.00
12763;BME280;6445;52.490;13.378;2023-02-25T09:02:37;-12695.97;;;-146.10;100.00
12763;BME280;6445;52.490;13.378;2023-02-25T09:05:02;-12695.97;;;-146.10;100.00
12763;BME280;6445;52.490;13.378;2023-02-25T09:07:28;-12695.97;;;-146.10;100.00
12763;BME280;6445;52.490;13.378;2023-02-25T09:09:54;-12695.97;;;-146.10;100.00
12763;BME280;6445;52.490;13.378;2023-02-25T09:12:19;-12695.97;;;-146.10;100.00
12763;BME280;6445;52.490;13.378;2023-02-25T09:14:45;-12695.97;;;-146.10;100.00
12763;BME280;6445;52.490;13.378;2023-02-25T09:17:10;-12695.97;;;-146.10;100.00
12763;BME280;6445;52.490;13.378;2023-02-25T09:19:35;-12695.97;;;-146.10;100.00
12763;BME280;6445;52.490;13.378;2023-02-25T09:22:03;-12695.97;;;-146.10;100.00
12763;BME280;6445;52.490;13.378;2023-02-25T09:24:28;-12695.97;;;-146.10;100.00
12763;BME280;6445;52.490;13.378;2023-02-25T09:26:54;-12695.97;;;-146.10;100.00
12763;BME280;6445;52.490;13.378;2023-02-25T09:29:19;-12694.50;;;-146.10;100.00
12763;BME280;6445;52.490;13.378;2023-02-25T09:31:44;-12442.63;;;-146.10;100.00
12763;BME280;6445;52.490;13.378;2023-02-25T09:34:10;-12442.63;;;-146.10;100.00
12763;BME280;6445;52.490;13.378;2023-02-25T09:36:39;-11687.00;;;-146.10;100.00
12763;BME280;6445;52.490;13.378;2023-02-25T09:39:04;-11183.13;;;-146.10;100.00
12763;BME280;6445;52.490;13.378;2023-02-25T09:41:40;-8158.66;;;-146.10;100.00
12763;BME280;6445;52.490;13.378;2023-02-25T09:44:16;-6393.25;;;-146.10;100.00
12763;BME280;6445;52.490;13.378;2023-02-25T09:46:52;-3869.88;;;-146.10;100.00
12763;BME280;6445;52.490;13.378;2023-02-25T09:51:58;-4122.28;;;-146.10;100.00
12763;BME280;6445;52.490;13.378;2023-02-25T09:54:36;-5888.72;;;-146.10;100.00
12763;BME280;6445;52.490;13.378;2023-02-25T09:57:03;-7149.94;;;-146.10;100.00
12763;BME280;6445;52.490;13.378;2023-02-25T09:59:30;-6393.25;;;-146.10;100.00
12763;BME280;6445;52.490;13.378;2023-02-25T10:01:59;-4627.06;;;-146.10;100.00
12763;BME280;6445;52.490;13.378;2023-02-25T10:07:38;7505.91;;;-146.10;100.00
12763;BME280;6445;52.490;13.378;2023-02-25T10:10:18;14601.09;;;-146.10;100.00
12763;BME280;6445;52.490;13.378;2023-02-25T10:15:49;12065.63;;;-146.10;100.00
12763;BME280;6445;52.490;13.378;2023-02-25T10:18:32;8518.72;;;-146.10;100.00
12763;BME280;6445;52.490;13.378;2023-02-25T10:24:01;-2355.03;;;-146.10;100.00
12763;BME280;6445;52.490;13.378;2023-02-25T10:26:38;-4122.28;;;-146.10;100.00
12763;BME280;6445;52.490;13.378;2023-02-25T10:29:10;-7149.94;;;-146.10;100.00
12763;BME280;6445;52.490;13.378;2023-02-25T10:31:37;-8915.00;;;-146.10;100.00
12763;BME280;6445;52.490;13.378;2023-02-25T10:34:34;-10679.22;;;-146.10;100.00
12763;BME280;6445;52.490;13.378;2023-02-25T10:37:04;-10931.19;;;-146.10;100.00
12763;BME280;6445;52.490;13.378;2023-02-25T10:39:31;-10427.25;;;-146.10;100.00
12763;BME280;6445;52.490;13.378;2023-02-25T10:41:57;-10175.25;;;-146.10;100.00
12763;BME280;6445;52.490;13.378;2023-02-25T10:44:23;-9419.13;;;-146.10;100.00
12763;BME280;6445;52.490;13.378;2023-02-25T10:46:56;-4879.41;;;-146.10;100.00
12763;BME280;6445;52.490;13.378;2023-02-25T10:49:25;-3365.00;;;-146.10;100.00
12763;BME280;6445;52.490;13.378;2023-02-25T10:54:28;10798.50;;;-146.10;100.00
12763;BME280;6445;52.490;13.378;2023-02-25T10:56:54;21306.31;;;-146.10;100.00
12763;BME280;6445;52.490;13.378;2023-02-25T10:59:36;34335.19;;;-146.10;100.00
12763;BME280;6445;52.490;13.378;2023-02-25T11:02:23;36831.41;;;-146.10;100.00
12763;BME280;6445;52.490;13.378;2023-02-25T11:04:50;41271.91;;;-146.10;100.00
12763;BME280;6445;52.490;13.378;2023-02-25T11:07:42;45887.19;;;-146.10;100.00
12763;BME280;6445;52.490;13.378;2023-02-25T11:12:41;50801.84;;;-146.10;100.00
12763;BME280;6445;52.490;13.378;2023-02-25T11:15:17;53350.53;;;-146.10;100.00
12763;BME280;6445;52.490;13.378;2023-02-25T11:17:44;55584.47;;;-146.10;100.00
12763;BME280;6445;52.490;13.378;2023-02-25T11:20:20;53132.41;;;-146.10;100.00
12763;BME280;6445;52.490;13.378;2023-02-25T11:22:50;31032.63;;;-146.10;100.00
12763;BME280;6445;52.490;13.378;2023-02-25T11:25:19;15825.84;;;-146.10;100.00
12763;BME280;6445;52.490;13.378;2023-02-25T11:27:55;12249.78;;;-146.10;100.00
12763;BME280;6445;52.490;13.378;2023-02-25T11:30:37;9559.47;;;-146.10;100.00
12763;BME280;6445;52.490;13.378;2023-02-25T11:33:27;8518.72;;;-146.10;100.00
12763;BME280;6445;52.490;13.378;2023-02-25T11:35:58;10545.13;;;-146.10;100.00
12763;BME280;6445;52.490;13.378;2023-02-25T11:38:37;15108.41;;;-146.10;100.00
12763;BME280;6445;52.490;13.378;2023-02-25T11:41:17;7759.09;;;-146.10;100.00
12763;BME280;6445;52.490;13.378;2023-02-25T11:43:44;2754.03;;;-146.10;100.00
12763;BME280;6445;52.490;13.378;2023-02-25T11:46:16;-1684.22;;;-146.10;100.00
12763;BME280;6445;52.490;13.378;2023-02-25T11:53:58;-839.59;;;-146.10;100.00
12763;BME280;6445;52.490;13.378;2023-02-25T11:56:36;5734.13;;;-146.10;100.00
12763;BME280;6445;52.490;13.378;2023-02-25T11:59:12;16123.19;;;-146.10;100.00
12763;BME280;6445;52.490;13.378;2023-02-25T12:07:36;36402.97;;;-146.10;100.00
12763;BME280;6445;52.490;13.378;2023-02-25T12:15:37;43271.47;;;-146.10;100.00
12763;BME280;6445;52.490;13.378;2023-02-25T12:18:41;30358.13;;;-146.10;100.00
12763;BME280;6445;52.490;13.378;2023-02-25T12:26:54;28575.91;;;-146.10;100.00
12763;BME280;6445;52.490;13.378;2023-02-25T12:35:37;34179.84;;;-146.10;100.00
12763;BME280;6445;52.490;13.378;2023-02-25T12:38:06;26540.09;;;-146.10;100.00
12763;BME280;6445;52.490;13.378;2023-02-25T12:43:50;8562.25;;;-146.10;100.00
12763;BME280;6445;52.490;13.378;2023-02-25T12:49:03;1944.19;;;-146.10;100.00
12763;BME280;6445;52.490;13.378;2023-02-25T13:00:08;1687.44;;;-146.10;100.00
12763;BME280;6445;52.490;13.378;2023-02-25T13:02:54;2445.88;;;-146.10;100.00
12763;BME280;6445;52.490;13.378;2023-02-25T13:05:46;2193.03;;;-146.10;100.00
12763;BME280;6445;52.490;13.378;2023-02-25T13:08:23;1181.91;;;-146.10;100.00
12763;BME280;6445;52.490;13.378;2023-02-25T13:11:16;9278.50;;;-146.10;100.00
12763;BME280;6445;52.490;13.378;2023-02-25T13:14:18;12826.09;;;-146.10;100.00
12763;BME280;6445;52.490;13.378;2023-02-25T13:19:59;929.16;;;-146.10;100.00
12763;BME280;6445;52.490;13.378;2023-02-25T13:23:05;-586.97;;;-146.10;100.00
12763;BME280;6445;52.490;13.378;2023-02-25T13:37:55;11305.28;;;-146.10;100.00
12763;BME280;6445;52.490;13.378;2023-02-25T13:40:31;16123.19;;;-146.10;100.00
12763;BME280;6445;52.490;13.378;2023-02-25T13:43:29;25522.59;;;-146.10;100.00
12763;BME280;6445;52.490;13.378;2023-02-25T13:58:27;17645.88;;;-146.10;100.00
12763;BME280;6445;52.490;13.378;2023-02-25T14:04:01;12319.09;;;-146.10;100.00
12763;BME280;6445;52.490;13.378;2023-02-25T14:09:40;10545.13;;;-146.10;100.00
12763;BME280;6445;52.490;13.378;2023-02-25T14:12:36;8012.28;;;-146.10;100.00
12763;BME280;6445;52.490;13.378;2023-02-25T14:15:19;3963.19;;;-146.10;100.00
12763;BME280;6445;52.490;13.378;2023-02-25T14:18:14;5734.13;;;-146.10;100.00
12763;BME280;6445;52.490;13.378;2023-02-25T14:21:26;9025.22;;;-146.10;100.00
12763;BME280;6445;52.490;13.378;2023-02-25T14:25:00;12572.56;;;-146.10;100.00